sensor_id;sensor_type;location;lat;lon;timestamp;P1;durP1;ratioP1;P2;durP2;ratioP2
77248;SDS011;66280;45.124;20.718;2023-10-13T00:06:52;6.83;;;4.87;;
77248;SDS011;66280;45.124;20.718;2023-10-13T00:16:54;7.30;;;4.68;;
77248;SDS011;66280;45.124;20.718;2023-10-13T00:27:04;7.17;;;4.23;;
77248;SDS011;66280;45.124;20.718;2023-10-13T00:37:06;15.80;;;7.40;;
77248;SDS011;66280;45.124;20.718;2023-10-13T00:47:13;6.90;;;5.03;;
77248;SDS011;66280;45.124;20.718;2023-10-13T00:57:18;11.00;;;4.97;;
77248;SDS011;66280;45.124;20.718;2023-10-13T01:07:28;7.47;;;5.15;;
77248;SDS011;66280;45.124;20.718;2023-10-13T01:17:30;9.43;;;6.23;;
77248;SDS011;66280;45.124;20.718;2023-10-13T01:27:36;7.47;;;6.03;;
77248;SDS011;66280;45.124;20.718;2023-10-13T01:37:39;12.00;;;6.50;;
77248;SDS011;66280;45.124;20.718;2023-10-13T01:47:40;8.67;;;5.50;;
77248;SDS011;66280;45.124;20.718;2023-10-13T01:57:43;11.02;;;6.32;;
77248;SDS011;66280;45.124;20.718;2023-10-13T02:07:48;12.97;;;7.07;;
77248;SDS011;66280;45.124;20.718;2023-10-13T02:17:50;8.47;;;5.40;;
77248;SDS011;66280;45.124;20.718;2023-10-13T02:27:55;9.67;;;6.97;;
77248;SDS011;66280;45.124;20.718;2023-10-13T02:38:00;10.03;;;6.27;;
77248;SDS011;66280;45.124;20.718;2023-10-13T02:48:11;14.07;;;7.20;;
77248;SDS011;66280;45.124;20.718;2023-10-13T02:58:18;8.33;;;6.57;;
77248;SDS011;66280;45.124;20.718;2023-10-13T03:08:19;10.07;;;7.00;;
77248;SDS011;66280;45.124;20.718;2023-10-13T03:18:28;12.27;;;7.30;;
77248;SDS011;66280;45.124;20.718;2023-10-13T03:28:34;11.43;;;7.27;;
77248;SDS011;66280;45.124;20.718;2023-10-13T03:38:39;10.95;;;7.10;;
77248;SDS011;66280;45.124;20.718;2023-10-13T03:48:41;11.27;;;6.87;;
77248;SDS011;66280;45.124;20.718;2023-10-13T03:58:54;13.23;;;8.30;;
77248;SDS011;66280;45.124;20.718;2023-10-13T04:09:01;14.33;;;8.77;;
77248;SDS011;66280;45.124;20.718;2023-10-13T04:19:20;13.47;;;9.63;;
77248;SDS011;66280;45.124;20.718;2023-10-13T04:29:25;25.95;;;12.80;;
77248;SDS011;66280;45.124;20.718;2023-10-13T04:39:47;22.53;;;14.53;;
77248;SDS011;66280;45.124;20.718;2023-10-13T04:49:57;22.30;;;14.70;;
77248;SDS011;66280;45.124;20.718;2023-10-13T05:00:02;21.37;;;13.90;;
77248;SDS011;66280;45.124;20.718;2023-10-13T05:10:13;25.23;;;14.47;;
77248;SDS011;66280;45.124;20.718;2023-10-13T05:20:33;23.63;;;15.25;;
77248;SDS011;66280;45.124;20.718;2023-10-13T05:30:53;18.00;;;13.03;;
77248;SDS011;66280;45.124;20.718;2023-10-13T05:41:14;19.40;;;12.60;;
77248;SDS011;66280;45.124;20.718;2023-10-13T05:51:34;30.87;;;14.23;;
77248;SDS011;66280;45.124;20.718;2023-10-13T06:01:53;24.43;;;16.00;;
77248;SDS011;66280;45.124;20.718;2023-10-13T06:12:13;29.08;;;16.40;;
77248;SDS011;66280;45.124;20.718;2023-10-13T06:22:33;27.97;;;16.73;;
77248;SDS011;66280;45.124;20.718;2023-10-13T06:32:53;34.97;;;17.80;;
77248;SDS011;66280;45.124;20.718;2023-10-13T06:42:54;26.13;;;17.77;;
77248;SDS011;66280;45.124;20.718;2023-10-13T06:53:13;29.93;;;16.87;;
77248;SDS011;66280;45.124;20.718;2023-10-13T07:03:24;24.50;;;18.45;;
77248;SDS011;66280;45.124;20.718;2023-10-13T07:13:27;22.17;;;17.93;;
77248;SDS011;66280;45.124;20.718;2023-10-13T07:23:30;25.30;;;19.57;;
77248;SDS011;66280;45.124;20.718;2023-10-13T07:33:32;28.00;;;17.57;;
77248;SDS011;66280;45.124;20.718;2023-10-13T07:43:33;25.40;;;17.43;;
77248;SDS011;66280;45.124;20.718;2023-10-13T07:53:35;24.98;;;18.25;;
77248;SDS011;66280;45.124;20.718;2023-10-13T08:03:40;22.73;;;17.57;;
77248;SDS011;66280;45.124;20.718;2023-10-13T08:13:45;29.83;;;16.73;;
77248;SDS011;66280;45.124;20.718;2023-10-13T08:23:54;31.37;;;17.20;;
77248;SDS011;66280;45.124;20.718;2023-10-13T08:33:56;26.40;;;18.20;;
77248;SDS011;66280;45.124;20.718;2023-10-13T08:44:08;24.05;;;16.25;;
77248;SDS011;66280;45.124;20.718;2023-10-13T08:54:14;37.23;;;17.77;;
77248;SDS011;66280;45.124;20.718;2023-10-13T09:04:45;32.87;;;15.97;;
77248;SDS011;66280;45.124;20.718;2023-10-13T09:14:52;17.00;;;15.17;;
77248;SDS011;66280;45.124;20.718;2023-10-13T09:25:24;24.07;;;15.83;;
77248;SDS011;66280;45.124;20.718;2023-10-13T09:35:25;21.25;;;14.45;;
77248;SDS011;66280;45.124;20.718;2023-10-13T09:45:30;24.50;;;15.40;;
77248;SDS011;66280;45.124;20.718;2023-10-13T09:55:45;23.97;;;14.67;;
77248;SDS011;66280;45.124;20.718;2023-10-13T10:05:55;19.80;;;13.90;;
77248;SDS011;66280;45.124;20.718;2023-10-13T10:16:08;18.07;;;15.10;;
77248;SDS011;66280;45.124;20.718;2023-10-13T10:26:15;19.43;;;13.03;;
77248;SDS011;66280;45.124;20.718;2023-10-13T10:36:29;19.80;;;13.55;;
77248;SDS011;66280;45.124;20.718;2023-10-13T10:46:33;19.53;;;12.93;;
77248;SDS011;66280;45.124;20.718;2023-10-13T10:56:43;19.77;;;12.30;;
77248;SDS011;66280;45.124;20.718;2023-10-13T11:16:49;20.88;;;11.63;;
77248;SDS011;66280;45.124;20.718;2023-10-13T11:27:01;16.03;;;11.57;;
77248;SDS011;66280;45.124;20.718;2023-10-13T11:37:03;21.97;;;10.33;;
77248;SDS011;66280;45.124;20.718;2023-10-13T11:47:26;16.92;;;10.80;;
77248;SDS011;66280;45.124;20.718;2023-10-13T11:57:49;17.90;;;10.23;;
77248;SDS011;66280;45.124;20.718;2023-10-13T12:07:51;44.17;;;11.90;;
77248;SDS011;66280;45.124;20.718;2023-10-13T12:17:52;17.42;;;10.93;;
77248;SDS011;66280;45.124;20.718;2023-10-13T12:27:58;12.33;;;9.40;;
77248;SDS011;66280;45.124;20.718;2023-10-13T12:38:13;16.33;;;11.20;;
77248;SDS011;66280;45.124;20.718;2023-10-13T12:48:37;19.23;;;11.07;;
77248;SDS011;66280;45.124;20.718;2023-10-13T12:59:05;14.53;;;9.33;;
77248;SDS011;66280;45.124;20.718;2023-10-13T13:09:10;19.90;;;9.90;;
77248;SDS011;66280;45.124;20.718;2023-10-13T13:19:11;16.05;;;9.50;;
77248;SDS011;66280;45.124;20.718;2023-10-13T13:29:15;22.60;;;9.70;;
77248;SDS011;66280;45.124;20.718;2023-10-13T13:39:18;14.60;;;7.97;;
77248;SDS011;66280;45.124;20.718;2023-10-13T13:49:29;17.27;;;8.27;;
77248;SDS011;66280;45.124;20.718;2023-10-13T13:59:41;17.83;;;8.83;;
77248;SDS011;66280;45.124;20.718;2023-10-13T14:09:46;14.10;;;9.07;;
77248;SDS011;66280;45.124;20.718;2023-10-13T14:19:52;19.55;;;8.18;;
77248;SDS011;66280;45.124;20.718;2023-10-13T14:29:55;16.60;;;8.23;;
77248;SDS011;66280;45.124;20.718;2023-10-13T14:39:58;19.20;;;9.03;;
77248;SDS011;66280;45.124;20.718;2023-10-13T14:50:00;20.73;;;9.00;;
77248;SDS011;66280;45.124;20.718;2023-10-13T15:00:05;15.23;;;8.23;;
77248;SDS011;66280;45.124;20.718;2023-10-13T15:10:14;102.57;;;17.95;;
77248;SDS011;66280;45.124;20.718;2023-10-13T15:20:16;118.07;;;14.57;;
77248;SDS011;66280;45.124;20.718;2023-10-13T15:30:18;37.03;;;10.30;;
77248;SDS011;66280;45.124;20.718;2023-10-13T15:40:25;35.78;;;13.77;;
77248;SDS011;66280;45.124;20.718;2023-10-13T15:50:28;46.03;;;17.63;;
77248;SDS011;66280;45.124;20.718;2023-10-13T16:00:40;35.25;;;13.57;;
77248;SDS011;66280;45.124;20.718;2023-10-13T16:10:42;34.83;;;12.03;;
77248;SDS011;66280;45.124;20.718;2023-10-13T16:20:44;74.67;;;21.03;;
77248;SDS011;66280;45.124;20.718;2023-10-13T16:30:48;32.72;;;15.38;;
77248;SDS011;66280;45.124;20.718;2023-10-13T16:40:53;47.23;;;16.33;;
77248;SDS011;66280;45.124;20.718;2023-10-13T16:50:55;28.48;;;14.85;;
77248;SDS011;66280;45.124;20.718;2023-10-13T17:01:00;91.93;;;36.83;;
77248;SDS011;66280;45.124;20.718;2023-10-13T17:21:17;35.70;;;16.45;;
77248;SDS011;66280;45.124;20.718;2023-10-13T17:31:19;28.97;;;17.80;;
77248;SDS011;66280;45.124;20.718;2023-10-13T17:41:21;34.08;;;22.60;;
77248;SDS011;66280;45.124;20.718;2023-10-13T17:51:24;31.83;;;21.50;;
77248;SDS011;66280;45.124;20.718;2023-10-13T18:01:26;43.67;;;20.67;;
77248;SDS011;66280;45.124;20.718;2023-10-13T18:11:32;36.55;;;21.55;;
77248;SDS011;66280;45.124;20.718;2023-10-13T18:21:34;36.47;;;23.23;;
77248;SDS011;66280;45.124;20.718;2023-10-13T18:31:36;34.40;;;24.30;;
77248;SDS011;66280;45.124;20.718;2023-10-13T18:41:38;37.20;;;23.43;;
77248;SDS011;66280;45.124;20.718;2023-10-13T18:51:39;36.67;;;27.43;;
77248;SDS011;66280;45.124;20.718;2023-10-13T19:01:43;35.97;;;21.70;;
77248;SDS011;66280;45.124;20.718;2023-10-13T19:11:47;29.97;;;20.23;;
77248;SDS011;66280;45.124;20.718;2023-10-13T19:21:48;35.33;;;21.85;;
77248;SDS011;66280;45.124;20.718;2023-10-13T19:31:50;31.83;;;20.97;;
77248;SDS011;66280;45.124;20.718;2023-10-13T19:41:51;28.87;;;20.90;;
77248;SDS011;66280;45.124;20.718;2023-10-13T19:51:52;41.10;;;23.05;;
77248;SDS011;66280;45.124;20.718;2023-10-13T20:01:58;30.30;;;18.90;;
77248;SDS011;66280;45.124;20.718;2023-10-13T20:12:00;34.17;;;21.50;;
77248;SDS011;66280;45.124;20.718;2023-10-13T20:22:03;31.20;;;24.80;;
77248;SDS011;66280;45.124;20.718;2023-10-13T20:32:10;32.57;;;24.50;;
77248;SDS011;66280;45.124;20.718;2023-10-13T20:42:15;48.47;;;29.35;;
77248;SDS011;66280;45.124;20.718;2023-10-13T20:52:17;34.20;;;30.53;;
77248;SDS011;66280;45.124;20.718;2023-10-13T21:02:18;41.53;;;35.15;;
77248;SDS011;66280;45.124;20.718;2023-10-13T21:12:23;37.13;;;27.23;;
77248;SDS011;66280;45.124;20.718;2023-10-13T21:22:25;37.80;;;24.43;;
77248;SDS011;66280;45.124;20.718;2023-10-13T21:32:28;28.00;;;21.08;;
77248;SDS011;66280;45.124;20.718;2023-10-13T21:42:29;20.33;;;16.47;;
77248;SDS011;66280;45.124;20.718;2023-10-13T21:52:32;22.02;;;16.77;;
77248;SDS011;66280;45.124;20.718;2023-10-13T22:02:33;28.97;;;17.37;;
77248;SDS011;66280;45.124;20.718;2023-10-13T22:12:35;16.73;;;13.70;;
77248;SDS011;66280;45.124;20.718;2023-10-13T22:22:38;17.80;;;13.10;;
77248;SDS011;66280;45.124;20.718;2023-10-13T22:32:40;15.47;;;13.87;;
77248;SDS011;66280;45.124;20.718;2023-10-13T22:42:42;17.95;;;12.90;;
77248;SDS011;66280;45.124;20.718;2023-10-13T22:52:44;18.23;;;12.27;;
77248;SDS011;66280;45.124;20.718;2023-10-13T23:02:46;17.87;;;12.50;;
77248;SDS011;66280;45.124;20.718;2023-10-13T23:12:49;16.33;;;11.40;;
77248;SDS011;66280;45.124;20.718;2023-10-13T23:22:51;16.20;;;11.37;;
77248;SDS011;66280;45.124;20.718;2023-10-13T23:32:53;21.23;;;11.40;;
77248;SDS011;66280;45.124;20.718;2023-10-13T23:42:56;13.73;;;11.43;;
77248;SDS011;66280;45.124;20.718;2023-10-13T23:52:57;16.00;;;11.50;;
